Etusivu
METAR-TAF:

METAR-TAF

Lentoasemat :

Houston, Texas, Yhdysvallat

George Bushin kansainvälinen lentoasema

Leveyspiiri: 29-59-33N, Pituuspiiri: 095-21-50W, korkeus merenpinnasta: 29 m

Tämänhetkinen sää

Tämä raportti tehtiin 43 minuuttia sitten, kello 10.53 UTC
Tuuli 4 kn lounaasta
Lämpötila 6°C
Kosteus 81%
Ilmanpaine 1027 hPa
Näkyvyys: 16.1 km
selkeää

METAR: KIAH 111053Z 23004KT 10SM CLR 06/03 A3032 RMK AO2 SLP269 T00610028

Aika: 05:36 (11:36 UTC)

Sääennuste

Tämä raportti tehtiin 2 tuntia ja 7 minuuttia sitten, kello 09.29 UTC
Ennuste voimassa 11. päivästä klo 09 UTC - 12. päivään klo 12 UTC
Tuuli 5 kn lännestä/lounaasta
Näkyvyys: 10 km
selkeää

TAF: KIAH 110929Z 1109/1212 25005KT P6SM SKC

Säähavainnot ja -ennusteet yli 4000 lentoasemalta (METAR- ja TAF-raportit).

Käytössä olevat sääasemat on merkitty karttaan keltaisilla ja punaisilla pisteillä.

Aseta hiiri pisteen päälle nähdäksesi sääaseman nimen.

Klikkaa sitten nähdäksesi säähavainnot ja -ennusteet.

Kartan vaihtaminen: klikkaa mustalla rastilla varustettuja vihreitä pisteitä, niin voit zoomata sisään; viivalla varustettua vihreää pistettä, niin voit zoomata ulos tai vihreitä nuolia, niin pääset viereisille kartoille.


METAR-TAF: